createdAt,value
2017-05-05T00:01:13.866Z,1006.27
2017-05-05T00:01:54.334Z,1006.27
2017-05-05T00:02:34.790Z,1006.25
2017-05-05T00:03:15.273Z,1006.25
2017-05-05T00:03:55.736Z,1006.24
2017-05-05T00:04:36.220Z,1006.24
2017-05-05T00:05:16.699Z,1006.26
2017-05-05T00:05:57.184Z,1006.25
2017-05-05T00:06:37.669Z,1006.24
2017-05-05T00:07:18.191Z,1006.24
2017-05-05T00:09:30.848Z,1006.18
2017-05-05T00:10:11.325Z,1006.18
2017-05-05T00:10:51.826Z,1006.2
2017-05-05T00:11:32.321Z,1006.19
2017-05-05T00:12:12.790Z,1006.17
2017-05-05T00:12:53.258Z,1006.2
2017-05-05T00:13:34.626Z,1006.2
2017-05-05T00:14:15.786Z,1006.22
2017-05-05T00:14:56.255Z,1006.19
2017-05-05T00:15:36.708Z,1006.18
2017-05-05T00:16:17.165Z,1006.17
2017-05-05T00:16:57.648Z,1006.17
2017-05-05T00:17:38.112Z,1006.18
2017-05-05T00:18:18.645Z,1006.16
2017-05-05T00:18:59.113Z,1006.17
2017-05-05T00:19:39.576Z,1006.19
2017-05-05T00:20:20.049Z,1006.21
2017-05-05T00:22:17.647Z,1006.2
2017-05-05T00:22:58.149Z,1006.21
2017-05-05T00:23:39.243Z,1006.16
2017-05-05T00:24:19.724Z,1006.19
2017-05-05T00:25:00.212Z,1006.22
2017-05-05T00:25:40.669Z,1006.2
2017-05-05T00:26:21.170Z,1006.2
2017-05-05T00:27:01.630Z,1006.25
2017-05-05T00:27:42.087Z,1006.24
2017-05-05T00:28:22.548Z,1006.24
2017-05-05T00:29:03.026Z,1006.24
2017-05-05T00:29:43.481Z,1006.25
2017-05-05T00:30:23.917Z,1006.25
2017-05-05T00:31:04.380Z,1006.24
2017-05-05T00:31:44.839Z,1006.25
2017-05-05T00:32:25.309Z,1006.23
2017-05-05T00:33:05.773Z,1006.25
2017-05-05T00:33:46.236Z,1006.28
2017-05-05T00:34:26.685Z,1006.31
2017-05-05T00:35:07.126Z,1006.28
2017-05-05T00:35:47.579Z,1006.26
2017-05-05T00:36:28.047Z,1006.3
2017-05-05T00:37:08.477Z,1006.3
2017-05-05T00:37:48.957Z,1006.29
2017-05-05T00:38:29.418Z,1006.28
2017-05-05T00:39:09.904Z,1006.27
2017-05-05T00:39:50.349Z,1006.27
2017-05-05T00:40:30.800Z,1006.26
2017-05-05T00:41:11.271Z,1006.26
2017-05-05T00:41:51.715Z,1006.26
2017-05-05T00:42:32.233Z,1006.27
2017-05-05T00:43:12.785Z,1006.24
2017-05-05T00:43:53.218Z,1006.27
2017-05-05T00:44:33.690Z,1006.24
2017-05-05T00:45:14.150Z,1006.22
2017-05-05T00:47:11.756Z,1006.23
2017-05-05T00:47:52.235Z,1006.21
2017-05-05T00:48:32.704Z,1006.23
2017-05-05T00:49:13.187Z,1006.23
2017-05-05T00:51:25.896Z,1006.22
2017-05-05T00:52:06.394Z,1006.19
2017-05-05T00:52:46.872Z,1006.2
2017-05-05T00:53:28.125Z,1006.17
2017-05-05T00:54:08.622Z,1006.14
2017-05-05T00:54:49.069Z,1006.17
2017-05-05T00:55:29.574Z,1006.15
2017-05-05T00:56:10.055Z,1006.16
2017-05-05T00:56:50.542Z,1006.17
2017-05-05T00:57:30.981Z,1006.15
2017-05-05T00:58:11.521Z,1006.12
2017-05-05T00:58:51.959Z,1006.17
2017-05-05T00:59:32.432Z,1006.13
2017-05-05T01:00:12.909Z,1006.11
2017-05-05T01:00:53.374Z,1006.12
2017-05-05T01:01:33.817Z,1006.13
2017-05-05T01:02:14.875Z,1006.11
2017-05-05T01:02:55.328Z,1006.11
2017-05-05T01:03:35.794Z,1006.12
2017-05-05T01:04:16.246Z,1006.12
2017-05-05T01:04:56.700Z,1006.1
2017-05-05T01:06:54.347Z,1006.12
2017-05-05T01:07:34.822Z,1006.12
2017-05-05T01:08:15.339Z,1006.11
2017-05-05T01:08:56.408Z,1006.11
2017-05-05T01:09:36.933Z,1006.13
2017-05-05T01:10:17.405Z,1006.12
2017-05-05T01:10:57.886Z,1006.14
2017-05-05T01:11:38.345Z,1006.13
2017-05-05T01:12:18.820Z,1006.12
2017-05-05T01:12:59.264Z,1006.15
2017-05-05T01:13:39.739Z,1006.15
2017-05-05T01:14:20.242Z,1006.14
2017-05-05T01:15:00.713Z,1006.1
2017-05-05T01:15:41.170Z,1006.15
2017-05-05T01:16:21.619Z,1006.13
2017-05-05T01:17:02.139Z,1006.12
2017-05-05T01:18:54.680Z,1006.13
2017-05-05T01:19:35.160Z,1006.15
2017-05-05T01:20:15.627Z,1006.17
2017-05-05T01:20:56.102Z,1006.18
2017-05-05T01:21:36.576Z,1006.15
2017-05-05T01:22:17.076Z,1006.22
2017-05-05T01:22:57.507Z,1006.18
2017-05-05T01:23:37.963Z,1006.21
2017-05-05T01:24:18.422Z,1006.19
2017-05-05T01:24:58.903Z,1006.2
2017-05-05T01:25:39.382Z,1006.2
2017-05-05T01:26:19.894Z,1006.23
2017-05-05T01:27:00.379Z,1006.19
2017-05-05T01:27:40.849Z,1006.21
2017-05-05T01:28:21.320Z,1006.2
2017-05-05T01:29:01.816Z,1006.21
2017-05-05T01:29:42.291Z,1006.23
2017-05-05T01:32:00.095Z,1006.24
2017-05-05T01:32:40.612Z,1006.24
2017-05-05T01:34:58.379Z,1006.22
2017-05-05T01:35:38.856Z,1006.22
2017-05-05T01:36:19.334Z,1006.22
2017-05-05T01:36:59.771Z,1006.25
2017-05-05T01:37:40.244Z,1006.25
2017-05-05T01:38:20.730Z,1006.28
2017-05-05T01:39:01.215Z,1006.25
2017-05-05T01:39:41.685Z,1006.27
2017-05-05T01:40:22.142Z,1006.27
2017-05-05T01:41:02.682Z,1006.26
2017-05-05T01:41:43.077Z,1006.28
2017-05-05T01:42:23.528Z,1006.25
2017-05-05T01:43:04.058Z,1006.26
2017-05-05T01:43:44.492Z,1006.27
2017-05-05T01:44:24.941Z,1006.31
2017-05-05T01:45:05.374Z,1006.26
2017-05-05T01:45:45.828Z,1006.27
2017-05-05T01:46:26.253Z,1006.26
2017-05-05T01:47:06.700Z,1006.28
2017-05-05T01:47:47.180Z,1006.24
2017-05-05T01:48:27.664Z,1006.28
2017-05-05T01:49:08.111Z,1006.27
2017-05-05T01:49:48.555Z,1006.27
2017-05-05T01:50:29.060Z,1006.28
2017-05-05T01:51:09.504Z,1006.24
2017-05-05T01:51:49.954Z,1006.26
2017-05-05T01:52:30.407Z,1006.29
2017-05-05T01:53:10.848Z,1006.23
2017-05-05T01:53:51.313Z,1006.27
2017-05-05T01:54:31.745Z,1006.24
2017-05-05T01:55:12.187Z,1006.25
2017-05-05T01:57:40.124Z,1006.29
2017-05-05T01:58:20.597Z,1006.27
2017-05-05T01:59:01.063Z,1006.3
2017-05-05T01:59:41.524Z,1006.32
2017-05-05T02:01:39.108Z,1006.33
2017-05-05T02:02:19.572Z,1006.36
2017-05-05T02:03:00.033Z,1006.32
2017-05-05T02:03:40.520Z,1006.32
2017-05-05T02:04:21.765Z,1006.32
2017-05-05T02:05:02.148Z,1006.34
2017-05-05T02:05:42.602Z,1006.32
2017-05-05T02:06:23.023Z,1006.33
2017-05-05T02:07:03.509Z,1006.34
2017-05-05T02:07:44.094Z,1006.31
2017-05-05T02:08:24.582Z,1006.35
2017-05-05T02:09:05.073Z,1006.36
2017-05-05T02:09:45.549Z,1006.33
2017-05-05T02:10:25.972Z,1006.38
2017-05-05T02:11:06.418Z,1006.34
2017-05-05T02:11:46.870Z,1006.33
2017-05-05T02:12:27.325Z,1006.3
2017-05-05T02:13:07.766Z,1006.33
2017-05-05T02:13:48.201Z,1006.3
2017-05-05T02:14:28.660Z,1006.32
2017-05-05T02:15:09.136Z,1006.3
2017-05-05T02:15:49.573Z,1006.29
2017-05-05T02:16:29.985Z,1006.28
2017-05-05T02:17:10.409Z,1006.32
2017-05-05T02:17:50.850Z,1006.33
2017-05-05T02:18:31.317Z,1006.29
2017-05-05T02:19:11.726Z,1006.34
2017-05-05T02:19:52.185Z,1006.33
2017-05-05T02:20:32.643Z,1006.32
2017-05-05T02:21:13.083Z,1006.32
2017-05-05T02:21:53.533Z,1006.36
2017-05-05T02:22:33.999Z,1006.37
2017-05-05T02:23:14.458Z,1006.35
2017-05-05T02:23:54.905Z,1006.36
2017-05-05T02:24:35.343Z,1006.36
2017-05-05T02:25:15.833Z,1006.36
2017-05-05T02:25:56.302Z,1006.36
2017-05-05T02:26:36.749Z,1006.38
2017-05-05T02:27:17.206Z,1006.39
2017-05-05T02:27:57.659Z,1006.4
2017-05-05T02:28:38.108Z,1006.37
2017-05-05T02:29:18.549Z,1006.39
2017-05-05T02:29:58.994Z,1006.4
2017-05-05T02:30:39.424Z,1006.4
2017-05-05T02:31:19.860Z,1006.41
2017-05-05T02:32:00.301Z,1006.41
2017-05-05T02:32:40.782Z,1006.4
2017-05-05T02:33:21.229Z,1006.42
2017-05-05T02:34:01.660Z,1006.39
2017-05-05T02:34:42.079Z,1006.41
2017-05-05T02:35:22.532Z,1006.43
2017-05-05T02:36:02.967Z,1006.41
2017-05-05T02:36:43.433Z,1006.41
2017-05-05T02:37:23.881Z,1006.41
2017-05-05T02:38:04.332Z,1006.43
2017-05-05T02:38:44.799Z,1006.41
2017-05-05T02:39:25.270Z,1006.46
2017-05-05T02:40:05.723Z,1006.45
2017-05-05T02:40:46.165Z,1006.42
2017-05-05T02:41:26.632Z,1006.42
2017-05-05T02:42:07.111Z,1006.42
2017-05-05T02:42:47.514Z,1006.41
2017-05-05T02:43:27.974Z,1006.41
2017-05-05T02:44:08.434Z,1006.41
2017-05-05T02:44:48.898Z,1006.42
2017-05-05T02:45:29.371Z,1006.42
2017-05-05T02:46:09.826Z,1006.41
2017-05-05T02:46:50.286Z,1006.46
2017-05-05T02:47:30.760Z,1006.44
2017-05-05T02:48:11.194Z,1006.45
2017-05-05T02:48:51.647Z,1006.42
2017-05-05T02:49:32.099Z,1006.44
2017-05-05T02:50:12.534Z,1006.43
2017-05-05T02:50:52.990Z,1006.4
2017-05-05T02:51:33.446Z,1006.44
2017-05-05T02:52:13.886Z,1006.39
2017-05-05T02:52:54.333Z,1006.4
2017-05-05T02:53:34.786Z,1006.39
2017-05-05T02:54:15.229Z,1006.39
2017-05-05T02:54:55.672Z,1006.4
2017-05-05T02:55:36.090Z,1006.4
2017-05-05T02:56:16.521Z,1006.39
2017-05-05T02:56:56.968Z,1006.38
2017-05-05T02:57:37.426Z,1006.41
2017-05-05T02:58:18.078Z,1006.43
2017-05-05T02:58:58.517Z,1006.38
2017-05-05T02:59:39.003Z,1006.39
2017-05-05T03:00:19.475Z,1006.43
2017-05-05T03:00:59.921Z,1006.38
2017-05-05T03:02:57.571Z,1006.39
2017-05-05T03:03:38.085Z,1006.37
2017-05-05T03:04:18.578Z,1006.35
2017-05-05T03:04:59.070Z,1006.41
2017-05-05T03:05:39.550Z,1006.4
2017-05-05T03:06:20.066Z,1006.45
2017-05-05T03:07:00.562Z,1006.38
2017-05-05T03:07:41.050Z,1006.38
2017-05-05T03:08:21.568Z,1006.35
2017-05-05T03:09:02.058Z,1006.38
2017-05-05T03:09:42.561Z,1006.38
2017-05-05T03:10:23.052Z,1006.37
2017-05-05T03:12:40.896Z,1006.41
2017-05-05T03:13:21.348Z,1006.41
2017-05-05T03:14:01.816Z,1006.4
2017-05-05T03:14:42.293Z,1006.38
2017-05-05T03:15:22.769Z,1006.4
2017-05-05T03:16:03.266Z,1006.37
2017-05-05T03:16:43.687Z,1006.37
2017-05-05T03:17:24.179Z,1006.39
2017-05-05T03:18:04.627Z,1006.39
2017-05-05T03:18:45.078Z,1006.38
2017-05-05T03:19:25.548Z,1006.39
2017-05-05T03:21:53.475Z,1006.41
2017-05-05T03:22:33.962Z,1006.41
2017-05-05T03:23:14.441Z,1006.42
2017-05-05T03:23:54.909Z,1006.42
2017-05-05T03:24:35.952Z,1006.42
2017-05-05T03:25:16.412Z,1006.44
2017-05-05T03:25:56.889Z,1006.45
2017-05-05T03:26:37.351Z,1006.41
2017-05-05T03:27:17.841Z,1006.44
2017-05-05T03:27:58.328Z,1006.39
2017-05-05T03:28:38.805Z,1006.4
2017-05-05T03:29:19.282Z,1006.4
2017-05-05T03:29:59.774Z,1006.45
2017-05-05T03:30:40.282Z,1006.38
2017-05-05T03:31:20.733Z,1006.39
2017-05-05T03:32:01.217Z,1006.4
2017-05-05T03:32:41.716Z,1006.44
2017-05-05T03:33:22.209Z,1006.45
2017-05-05T03:34:02.739Z,1006.43
2017-05-05T03:34:43.139Z,1006.46
2017-05-05T03:35:23.583Z,1006.43
2017-05-05T03:36:04.015Z,1006.47
2017-05-05T03:36:44.463Z,1006.47
2017-05-05T03:37:24.901Z,1006.42
2017-05-05T03:38:05.378Z,1006.44
2017-05-05T03:38:45.841Z,1006.46
2017-05-05T03:39:26.280Z,1006.44
2017-05-05T03:40:06.743Z,1006.47
2017-05-05T03:40:47.208Z,1006.45
2017-05-05T03:41:27.685Z,1006.43
2017-05-05T03:42:08.128Z,1006.45
2017-05-05T03:44:36.020Z,1006.46
2017-05-05T03:45:16.491Z,1006.44
2017-05-05T03:45:56.990Z,1006.47
2017-05-05T03:46:37.466Z,1006.44
2017-05-05T03:47:17.927Z,1006.45
2017-05-05T03:47:58.418Z,1006.49
2017-05-05T03:48:38.916Z,1006.46
2017-05-05T03:49:19.403Z,1006.46
2017-05-05T03:50:00.734Z,1006.49
2017-05-05T03:50:41.218Z,1006.52
2017-05-05T03:51:21.678Z,1006.47
2017-05-05T03:52:02.126Z,1006.5
2017-05-05T03:52:42.582Z,1006.47
2017-05-05T03:53:23.049Z,1006.47
2017-05-05T03:54:04.423Z,1006.47
2017-05-05T03:54:44.894Z,1006.5
2017-05-05T03:55:25.396Z,1006.49
2017-05-05T03:56:05.874Z,1006.48
2017-05-05T03:56:46.358Z,1006.47
2017-05-05T03:57:26.847Z,1006.52
2017-05-05T03:58:07.330Z,1006.49
2017-05-05T03:58:47.821Z,1006.47
2017-05-05T03:59:28.310Z,1006.48
2017-05-05T04:00:08.773Z,1006.44
2017-05-05T04:00:49.223Z,1006.44
2017-05-05T04:01:29.684Z,1006.47
2017-05-05T04:02:10.138Z,1006.45
2017-05-05T04:02:50.585Z,1006.45
2017-05-05T04:03:31.029Z,1006.44
2017-05-05T04:04:11.491Z,1006.48
2017-05-05T04:04:51.961Z,1006.48
2017-05-05T04:05:32.408Z,1006.5
2017-05-05T04:06:13.826Z,1006.48
2017-05-05T04:06:54.307Z,1006.48
2017-05-05T04:07:34.779Z,1006.48
2017-05-05T04:08:15.271Z,1006.47
2017-05-05T04:10:33.064Z,1006.46
2017-05-05T04:11:13.581Z,1006.52
2017-05-05T04:11:54.015Z,1006.53
2017-05-05T04:12:34.513Z,1006.51
2017-05-05T04:13:15.650Z,1006.53
2017-05-05T04:13:56.097Z,1006.55
2017-05-05T04:14:36.543Z,1006.58
2017-05-05T04:15:17.017Z,1006.54
2017-05-05T04:15:57.439Z,1006.55
2017-05-05T04:16:37.892Z,1006.57
2017-05-05T04:18:35.494Z,1006.58
2017-05-05T04:19:15.965Z,1006.54
2017-05-05T04:19:56.441Z,1006.58
2017-05-05T04:20:36.923Z,1006.61
2017-05-05T04:21:17.397Z,1006.63
2017-05-05T04:21:57.900Z,1006.61
2017-05-05T04:22:38.389Z,1006.57
2017-05-05T04:23:18.859Z,1006.63
2017-05-05T04:23:59.357Z,1006.62
2017-05-05T04:24:39.806Z,1006.6
2017-05-05T04:25:20.249Z,1006.63
2017-05-05T04:26:00.683Z,1006.61
2017-05-05T04:26:41.136Z,1006.62
2017-05-05T04:27:21.602Z,1006.61
2017-05-05T04:28:02.032Z,1006.66
2017-05-05T04:28:42.513Z,1006.63
2017-05-05T04:31:10.403Z,1006.67
2017-05-05T04:31:50.895Z,1006.7
2017-05-05T04:32:31.371Z,1006.67
2017-05-05T04:33:11.875Z,1006.68
2017-05-05T04:33:52.334Z,1006.71
2017-05-05T04:34:32.820Z,1006.68
2017-05-05T04:35:13.293Z,1006.73
2017-05-05T04:35:53.766Z,1006.68
2017-05-05T04:36:34.219Z,1006.72
2017-05-05T04:37:14.669Z,1006.71
2017-05-05T04:37:55.179Z,1006.74
2017-05-05T04:38:35.641Z,1006.72
2017-05-05T04:39:16.138Z,1006.69
2017-05-05T04:39:56.600Z,1006.72
2017-05-05T04:40:37.072Z,1006.75
2017-05-05T04:41:17.523Z,1006.75
2017-05-05T04:41:57.980Z,1006.78
2017-05-05T04:42:38.446Z,1006.74
2017-05-05T04:43:18.893Z,1006.75
2017-05-05T04:43:59.360Z,1006.76
2017-05-05T04:44:39.783Z,1006.77
2017-05-05T04:45:20.246Z,1006.76
2017-05-05T04:46:00.686Z,1006.79
2017-05-05T04:46:41.136Z,1006.81
2017-05-05T04:47:21.575Z,1006.8
2017-05-05T04:48:02.007Z,1006.78
2017-05-05T04:48:42.449Z,1006.8
2017-05-05T04:49:22.915Z,1006.82
2017-05-05T04:50:03.389Z,1006.8
2017-05-05T04:50:43.939Z,1006.79
2017-05-05T04:51:25.062Z,1006.77
2017-05-05T04:52:05.873Z,1006.81
2017-05-05T04:54:03.474Z,1006.82
2017-05-05T04:54:43.957Z,1006.81
2017-05-05T04:55:24.433Z,1006.8
2017-05-05T04:56:04.932Z,1006.83
2017-05-05T04:56:45.423Z,1006.85
2017-05-05T04:57:25.950Z,1006.85
2017-05-05T04:58:06.438Z,1006.84
2017-05-05T04:58:46.929Z,1006.88
2017-05-05T04:59:27.402Z,1006.88
2017-05-05T05:00:07.849Z,1006.89
2017-05-05T05:00:48.293Z,1006.88
2017-05-05T05:01:28.744Z,1006.9
2017-05-05T05:02:09.218Z,1006.87
2017-05-05T05:02:49.665Z,1006.9
2017-05-05T05:03:30.748Z,1006.89
2017-05-05T05:04:11.230Z,1006.9
2017-05-05T05:04:51.678Z,1006.94
2017-05-05T05:05:32.115Z,1006.94
2017-05-05T05:06:12.549Z,1006.98
2017-05-05T05:06:52.985Z,1007.02
2017-05-05T05:07:33.435Z,1007.02
2017-05-05T05:08:13.916Z,1006.98
2017-05-05T05:08:55.053Z,1007.03
2017-05-05T05:11:12.847Z,1007
2017-05-05T05:11:53.323Z,1007.04
2017-05-05T05:12:33.813Z,1007.02
2017-05-05T05:13:14.310Z,1007.06
2017-05-05T05:13:54.787Z,1007.04
2017-05-05T05:14:35.256Z,1007.06
2017-05-05T05:15:15.725Z,1007.09
2017-05-05T05:15:56.273Z,1007.09
2017-05-05T05:16:36.834Z,1007.08
2017-05-05T05:17:17.484Z,1007.12
2017-05-05T05:17:58.158Z,1007.09
2017-05-05T05:18:38.646Z,1007.11
2017-05-05T05:19:19.131Z,1007.13
2017-05-05T05:19:59.631Z,1007.12
2017-05-05T05:20:40.158Z,1007.13
2017-05-05T05:21:20.663Z,1007.15
2017-05-05T05:22:01.736Z,1007.09
2017-05-05T05:22:42.198Z,1007.17
2017-05-05T05:23:22.679Z,1007.15
2017-05-05T05:24:03.152Z,1007.15
2017-05-05T05:24:43.627Z,1007.14
2017-05-05T05:25:24.105Z,1007.15
2017-05-05T05:27:21.707Z,1007.15
2017-05-05T05:28:02.207Z,1007.2
2017-05-05T05:28:42.716Z,1007.2
2017-05-05T05:29:23.184Z,1007.2
2017-05-05T05:30:03.684Z,1007.25
2017-05-05T05:30:44.171Z,1007.25
2017-05-05T05:31:25.382Z,1007.26
2017-05-05T05:32:05.654Z,1007.25
2017-05-05T05:32:46.151Z,1007.22
2017-05-05T05:33:26.788Z,1007.25
2017-05-05T05:34:07.244Z,1007.24
2017-05-05T05:34:48.615Z,1007.26
2017-05-05T05:35:29.056Z,1007.26
2017-05-05T05:36:09.529Z,1007.28
2017-05-05T05:36:49.991Z,1007.29
2017-05-05T05:37:30.458Z,1007.32
2017-05-05T05:39:43.168Z,1007.35
2017-05-05T05:40:23.625Z,1007.38
2017-05-05T05:41:04.116Z,1007.38
2017-05-05T05:41:44.689Z,1007.36
2017-05-05T05:42:25.173Z,1007.4
2017-05-05T05:43:05.662Z,1007.38
2017-05-05T05:43:46.141Z,1007.39
2017-05-05T05:44:26.660Z,1007.41
2017-05-05T05:45:07.220Z,1007.44
2017-05-05T05:45:47.667Z,1007.42
2017-05-05T05:46:28.163Z,1007.41
2017-05-05T05:47:08.651Z,1007.39
2017-05-05T05:47:49.106Z,1007.39
2017-05-05T05:50:06.981Z,1007.36
2017-05-05T05:50:47.438Z,1007.39
2017-05-05T05:51:27.853Z,1007.39
2017-05-05T05:52:08.285Z,1007.38
2017-05-05T05:52:48.716Z,1007.37
2017-05-05T05:53:29.161Z,1007.37
2017-05-05T05:54:09.620Z,1007.38
2017-05-05T05:54:50.070Z,1007.34
2017-05-05T05:55:30.529Z,1007.4
2017-05-05T05:56:11.019Z,1007.39
2017-05-05T05:56:51.467Z,1007.41
2017-05-05T05:57:32.019Z,1007.37
2017-05-05T05:58:12.426Z,1007.36
2017-05-05T05:58:52.928Z,1007.41
2017-05-05T05:59:33.372Z,1007.39
2017-05-05T06:00:13.797Z,1007.34
2017-05-05T06:00:54.243Z,1007.36
2017-05-05T06:01:34.687Z,1007.4
2017-05-05T06:02:15.128Z,1007.38
2017-05-05T06:02:55.575Z,1007.39
2017-05-05T06:03:36.065Z,1007.43
2017-05-05T06:04:16.501Z,1007.46
2017-05-05T06:04:56.998Z,1007.46
2017-05-05T06:05:37.462Z,1007.42
2017-05-05T06:06:17.898Z,1007.41
2017-05-05T06:06:58.356Z,1007.41
2017-05-05T06:07:38.772Z,1007.45
2017-05-05T06:08:20.075Z,1007.45
2017-05-05T06:09:00.536Z,1007.45
2017-05-05T06:09:40.978Z,1007.45
2017-05-05T06:10:21.469Z,1007.46
2017-05-05T06:11:01.963Z,1007.48
2017-05-05T06:11:42.417Z,1007.49
2017-05-05T06:12:22.882Z,1007.51
2017-05-05T06:13:03.341Z,1007.48
2017-05-05T06:13:43.783Z,1007.48
2017-05-05T06:14:24.236Z,1007.52
2017-05-05T06:15:04.669Z,1007.49
2017-05-05T06:15:45.758Z,1007.51
2017-05-05T06:16:26.205Z,1007.49
2017-05-05T06:17:06.652Z,1007.49
2017-05-05T06:17:47.126Z,1007.49
2017-05-05T06:18:27.557Z,1007.5
2017-05-05T06:19:07.996Z,1007.5
2017-05-05T06:19:48.580Z,1007.46
2017-05-05T06:20:29.598Z,1007.46
2017-05-05T06:21:10.085Z,1007.46
2017-05-05T06:21:50.658Z,1007.44
2017-05-05T06:24:03.425Z,1007.47
2017-05-05T06:24:43.883Z,1007.46
2017-05-05T06:25:24.357Z,1007.48
2017-05-05T06:26:04.783Z,1007.51
2017-05-05T06:26:45.206Z,1007.5
2017-05-05T06:28:42.862Z,1007.5
2017-05-05T06:29:23.335Z,1007.49
2017-05-05T06:30:03.782Z,1007.51
2017-05-05T06:30:44.954Z,1007.49
2017-05-05T06:31:25.672Z,1007.45
2017-05-05T06:32:08.815Z,1007.43
2017-05-05T06:32:49.504Z,1007.41
2017-05-05T06:33:30.349Z,1007.45
2017-05-05T06:34:10.991Z,1007.47
2017-05-05T06:34:51.722Z,1007.43
2017-05-05T06:35:32.322Z,1007.46
2017-05-05T06:36:13.194Z,1007.48
2017-05-05T06:36:53.748Z,1007.47
2017-05-05T06:37:34.420Z,1007.51
2017-05-05T06:39:52.884Z,1007.53
2017-05-05T06:40:33.555Z,1007.58
2017-05-05T06:41:14.175Z,1007.58
2017-05-05T06:41:55.044Z,1007.63
2017-05-05T06:42:35.821Z,1007.65
2017-05-05T06:43:16.389Z,1007.7
2017-05-05T06:45:29.129Z,1007.77
2017-05-05T06:46:09.929Z,1007.7
2017-05-05T06:46:50.467Z,1007.7
2017-05-05T06:47:31.003Z,1007.75
2017-05-05T06:48:11.481Z,1007.79
2017-05-05T06:48:51.920Z,1007.82
2017-05-05T06:49:32.425Z,1007.82
2017-05-05T06:50:12.908Z,1007.78
2017-05-05T06:50:53.356Z,1007.8
2017-05-05T06:51:33.814Z,1007.8
2017-05-05T06:52:14.240Z,1007.82
2017-05-05T06:52:54.688Z,1007.87
2017-05-05T06:53:35.122Z,1007.88
2017-05-05T06:54:15.569Z,1007.87
2017-05-05T06:54:56.031Z,1007.86
2017-05-05T06:57:08.803Z,1007.88
2017-05-05T06:57:49.786Z,1007.89
2017-05-05T06:58:30.289Z,1007.92
2017-05-05T06:59:10.750Z,1007.93
2017-05-05T06:59:51.194Z,1007.96
2017-05-05T07:00:31.691Z,1007.95
2017-05-05T07:01:12.270Z,1007.98
2017-05-05T07:01:52.729Z,1007.99
2017-05-05T07:04:20.819Z,1008.03
2017-05-05T07:05:01.355Z,1008.1
2017-05-05T07:05:41.810Z,1008.13
2017-05-05T07:06:22.282Z,1008.18
2017-05-05T07:07:02.758Z,1008.26
2017-05-05T07:08:55.290Z,1008.21
2017-05-05T07:10:52.920Z,1008.2
2017-05-05T07:11:33.495Z,1008.18
2017-05-05T07:12:13.975Z,1008.17
2017-05-05T07:12:54.455Z,1008.19
2017-05-05T07:13:35.013Z,1008.19
2017-05-05T07:14:15.578Z,1008.18
2017-05-05T07:14:56.047Z,1008.18
2017-05-05T07:15:36.545Z,1008.19
2017-05-05T07:16:17.009Z,1008.19
2017-05-05T07:16:57.484Z,1008.21
2017-05-05T07:17:37.954Z,1008.21
2017-05-05T07:18:18.400Z,1008.22
2017-05-05T07:18:58.883Z,1008.22
2017-05-05T07:19:39.454Z,1008.16
2017-05-05T07:20:20.139Z,1008.16
2017-05-05T07:21:00.587Z,1008.15
2017-05-05T07:21:41.097Z,1008.2
2017-05-05T07:22:21.743Z,1008.2
2017-05-05T07:23:02.366Z,1008.21
2017-05-05T07:23:42.942Z,1008.22
2017-05-05T07:24:23.470Z,1008.23
2017-05-05T07:25:03.945Z,1008.36
2017-05-05T07:25:44.421Z,1008.43
2017-05-05T07:26:24.898Z,1008.45
2017-05-05T07:27:05.359Z,1008.45
2017-05-05T07:29:03.010Z,1008.39
2017-05-05T07:29:43.579Z,1008.34
2017-05-05T07:30:24.078Z,1008.27
2017-05-05T07:31:04.525Z,1008.28
2017-05-05T07:31:45.010Z,1008.27
2017-05-05T07:32:25.533Z,1008.27
2017-05-05T07:33:06.035Z,1008.29
2017-05-05T07:33:47.296Z,1008.25
2017-05-05T07:34:27.730Z,1008.25
2017-05-05T07:35:08.238Z,1008.29
2017-05-05T07:35:48.767Z,1008.33
2017-05-05T07:36:29.225Z,1008.31
2017-05-05T07:38:27.014Z,1008.4
2017-05-05T07:39:07.456Z,1008.4
2017-05-05T07:39:48.031Z,1008.52
2017-05-05T07:41:40.559Z,1008.44
2017-05-05T07:42:21.025Z,1008.45
2017-05-05T07:43:01.517Z,1008.45
2017-05-05T07:43:41.967Z,1008.44
2017-05-05T07:44:22.650Z,1008.4
2017-05-05T07:45:03.057Z,1008.38
2017-05-05T07:45:43.608Z,1008.36
2017-05-05T07:46:24.101Z,1008.32
2017-05-05T07:47:04.657Z,1008.3
2017-05-05T07:47:45.165Z,1008.3
2017-05-05T07:48:25.636Z,1008.38
2017-05-05T07:49:06.066Z,1008.39
2017-05-05T07:49:46.647Z,1008.36
2017-05-05T07:50:27.281Z,1008.5
2017-05-05T07:52:19.882Z,1008.3
2017-05-05T07:53:00.361Z,1008.2
2017-05-05T07:53:40.843Z,1008.19
2017-05-05T07:54:21.363Z,1008.21
2017-05-05T07:55:01.817Z,1008.21
2017-05-05T07:55:42.228Z,1008.16
2017-05-05T07:56:22.664Z,1008.24
2017-05-05T07:58:40.492Z,1008.12
2017-05-05T07:59:20.963Z,1008.12
2017-05-05T08:00:01.434Z,1008.15
2017-05-05T08:00:41.855Z,1008.14
2017-05-05T08:01:22.334Z,1008.12
2017-05-05T08:03:14.895Z,1008.16
2017-05-05T08:03:56.140Z,1008.15
2017-05-05T08:04:36.586Z,1008.21
2017-05-05T08:05:17.086Z,1008.28
2017-05-05T08:05:57.584Z,1008.33
2017-05-05T08:06:38.202Z,1008.32
2017-05-05T08:07:18.721Z,1008.34
2017-05-05T08:09:47.077Z,1008.44
2017-05-05T08:10:27.540Z,1008.46
2017-05-05T08:11:08.055Z,1008.52
2017-05-05T08:11:48.558Z,1008.52
2017-05-05T08:12:29.003Z,1008.45
2017-05-05T08:13:09.454Z,1008.46
2017-05-05T08:13:49.973Z,1008.51
2017-05-05T08:14:30.447Z,1008.65
2017-05-05T08:15:11.174Z,1008.64
2017-05-05T08:17:08.811Z,1008.65
2017-05-05T08:17:49.287Z,1008.75
2017-05-05T08:18:29.792Z,1008.73
2017-05-05T08:19:10.968Z,1008.82
2017-05-05T08:19:51.469Z,1008.89
2017-05-05T08:20:31.938Z,1008.82
2017-05-05T08:21:12.396Z,1008.9
2017-05-05T08:21:52.872Z,1008.95
2017-05-05T08:24:06.006Z,1008.74
2017-05-05T08:24:46.475Z,1008.88
2017-05-05T08:25:26.960Z,1008.89
2017-05-05T08:26:07.416Z,1008.7
2017-05-05T08:26:47.862Z,1008.89
2017-05-05T08:27:28.311Z,1008.95
2017-05-05T08:28:08.878Z,1008.92
2017-05-05T08:28:49.328Z,1008.93
2017-05-05T08:29:29.830Z,1008.84
2017-05-05T08:30:10.412Z,1008.98
2017-05-05T08:30:50.920Z,1008.27
2017-05-05T08:31:31.369Z,1008.31
2017-05-05T08:32:11.942Z,1008.31
2017-05-05T08:32:52.339Z,1008.28
2017-05-05T08:33:32.827Z,1008.43
2017-05-05T08:34:13.302Z,1008.92
2017-05-05T08:34:53.782Z,1008.67
2017-05-05T08:35:34.266Z,1008.92
2017-05-05T08:36:14.779Z,1008.91
2017-05-05T08:36:55.293Z,1008.96
2017-05-05T08:37:35.790Z,1009.03
2017-05-05T08:38:16.510Z,1009.1
2017-05-05T08:38:56.976Z,1009.17
2017-05-05T08:41:14.972Z,1009.08
2017-05-05T08:43:50.803Z,1009.37
2017-05-05T08:44:32.886Z,1008.95
2017-05-05T08:45:13.454Z,1009.28
2017-05-05T08:45:53.910Z,1008.47
2017-05-05T08:46:34.391Z,1008.42
2017-05-05T08:47:14.866Z,1008.42
2017-05-05T08:47:55.386Z,1008.39
2017-05-05T08:48:35.878Z,1008.47
2017-05-05T08:49:16.445Z,1009.01
2017-05-05T08:49:56.924Z,1009.4
2017-05-05T08:50:37.391Z,1009.17
2017-05-05T08:53:05.462Z,1008.37
2017-05-05T08:53:45.914Z,1008.43
2017-05-05T08:54:26.388Z,1008.36
2017-05-05T08:55:06.839Z,1008.37
2017-05-05T08:55:47.406Z,1008.32
2017-05-05T08:56:28.190Z,1008.28
2017-05-05T08:57:08.564Z,1008.27
2017-05-05T08:57:49.100Z,1008.36
2017-05-05T09:00:07.280Z,1008.37
2017-05-05T09:00:47.758Z,1008.32
2017-05-05T09:01:28.234Z,1008.34
2017-05-05T09:03:56.352Z,1008.05
2017-05-05T09:04:36.778Z,1008.02
2017-05-05T09:06:49.695Z,1007.98
2017-05-05T09:07:30.115Z,1007.91
2017-05-05T09:08:10.609Z,1007.89
2017-05-05T09:08:51.047Z,1007.88
2017-05-05T09:09:31.525Z,1007.96
2017-05-05T09:11:44.293Z,1008.02
2017-05-05T09:12:25.359Z,1008.04
2017-05-05T09:13:05.821Z,1008.07
2017-05-05T09:13:46.306Z,1008.36
2017-05-05T09:14:26.731Z,1009.42
2017-05-05T09:16:39.443Z,1010.01
2017-05-05T09:17:20.119Z,1009.27
2017-05-05T09:18:00.570Z,1009.22
2017-05-05T09:18:41.058Z,1008.37
2017-05-05T09:19:21.705Z,1008.11
2017-05-05T09:21:19.309Z,1007.94
2017-05-05T09:21:59.839Z,1007.91
2017-05-05T09:22:40.289Z,1007.85
2017-05-05T09:23:20.788Z,1007.9
2017-05-05T09:24:01.310Z,1007.84
2017-05-05T09:24:41.777Z,1007.82